Time;durP1;ratioP1;P1;durP2;ratioP2;P2;SDS_P1;SDS_P2;PMS_P1;PMS_P2;Temp;Humidity;BMP_temperature;BMP_pressure;BME280_temperature;BME280_humidity;BME280_pressure;Samples;Min_cycle;Max_cycle;Signal;HPM_P1;HPM_P2
2022/04/30 00:00:52;;;;;;;11.50;4.13;;;14.90;98.30;;;;;;5034346;28;20235;-79
2022/04/30 00:03:18;;;;;;;8.02;3.85;;;15.00;98.70;;;;;;5035629;28;20169;-79
2022/04/30 00:05:43;;;;;;;10.32;4.18;;;14.90;99.00;;;;;;5035290;28;20291;-79
2022/04/30 00:08:09;;;;;;;6.00;4.22;;;14.90;99.20;;;;;;5034946;28;20286;-80
2022/04/30 00:10:38;;;;;;;9.38;3.60;;;14.80;99.40;;;;;;5032409;28;20208;-79
2022/04/30 00:13:05;;;;;;;8.93;4.03;;;14.80;99.80;;;;;;5034432;28;20209;-79
2022/04/30 00:15:31;;;;;;;7.07;3.53;;;14.80;99.90;;;;;;5033428;28;20224;-79
2022/04/30 00:17:57;;;;;;;8.75;4.78;;;14.80;99.90;;;;;;5034468;28;20173;-79
2022/04/30 00:20:22;;;;;;;8.38;4.93;;;14.70;99.90;;;;;;5032134;28;20697;-79
2022/04/30 00:22:48;;;;;;;9.45;6.10;;;14.70;99.90;;;;;;5033427;28;20245;-79
2022/04/30 00:25:14;;;;;;;14.93;7.13;;;14.60;99.90;;;;;;5032940;28;20212;-78
2022/04/30 00:27:40;;;;;;;13.40;6.90;;;14.60;99.90;;;;;;5032314;28;20237;-78
2022/04/30 00:30:06;;;;;;;13.00;7.00;;;14.50;99.90;;;;;;5033661;28;20177;-79
2022/04/30 00:32:31;;;;;;;10.88;7.40;;;14.30;99.90;;;;;;5032782;28;20235;-79
2022/04/30 00:34:57;;;;;;;15.65;7.68;;;14.30;99.90;;;;;;5036019;28;20711;-79
2022/04/30 00:37:22;;;;;;;16.17;7.75;;;14.30;99.90;;;;;;5039610;28;20200;-79
2022/04/30 00:39:48;;;;;;;13.00;8.25;;;14.20;99.90;;;;;;5039495;28;20216;-79
2022/04/30 00:42:14;;;;;;;11.48;7.45;;;14.10;99.90;;;;;;5036619;28;20168;-79
2022/04/30 00:44:39;;;;;;;14.63;8.13;;;14.00;99.90;;;;;;5036317;28;20668;-79
2022/04/30 00:47:05;;;;;;;13.40;7.93;;;14.00;99.90;;;;;;5037061;28;20208;-79
2022/04/30 00:49:30;;;;;;;17.42;7.47;;;13.90;99.90;;;;;;5035861;28;20685;-80
2022/04/30 00:52:01;;;;;;;11.90;8.35;;;13.90;99.90;;;;;;5035197;28;20204;-79
2022/04/30 00:54:32;;;;;;;12.73;7.60;;;13.80;99.90;;;;;;5036394;28;20298;-80
2022/04/30 00:57:01;;;;;;;12.88;7.95;;;13.80;99.90;;;;;;5037026;28;20255;-79
2022/04/30 00:59:29;;;;;;;9.77;7.43;;;13.70;99.90;;;;;;5035942;28;20204;-80
2022/04/30 01:01:59;;;;;;;17.30;8.18;;;13.70;99.90;;;;;;5032592;28;20204;-79
2022/04/30 01:04:25;;;;;;;9.63;7.63;;;13.70;99.90;;;;;;5031503;28;20219;-79
2022/04/30 01:07:06;;;;;;;15.93;8.32;;;13.70;99.90;;;;;;5032318;28;20335;-79
2022/04/30 01:09:35;;;;;;;14.10;8.37;;;13.70;99.90;;;;;;5030953;28;20212;-79
2022/04/30 01:12:10;;;;;;;12.00;7.80;;;13.60;99.90;;;;;;5032646;28;20179;-79
2022/04/30 01:14:37;;;;;;;14.45;7.75;;;13.50;99.90;;;;;;5031355;28;20227;-79
2022/04/30 01:17:05;;;;;;;12.07;7.30;;;13.40;99.90;;;;;;5031296;28;20208;-79
2022/04/30 01:19:32;;;;;;;12.93;7.90;;;13.40;99.90;;;;;;5033286;28;20203;-80
2022/04/30 01:22:01;;;;;;;9.68;7.57;;;13.40;99.90;;;;;;5033460;28;20771;-80
2022/04/30 01:24:28;;;;;;;11.77;7.70;;;13.40;99.90;;;;;;5034868;28;20228;-79
2022/04/30 01:26:55;;;;;;;14.68;7.53;;;13.50;99.90;;;;;;5035472;28;20215;-79
2022/04/30 01:29:25;;;;;;;12.67;7.43;;;13.40;99.90;;;;;;5034370;28;20701;-79
2022/04/30 01:37:26;;;;;;;10.17;7.80;;;13.30;99.90;;;;;;5034465;28;20211;-79
2022/04/30 01:40:01;;;;;;;12.30;7.97;;;13.30;99.90;;;;;;5034077;28;20201;-79
2022/04/30 01:42:29;;;;;;;13.10;7.90;;;13.20;99.90;;;;;;5033357;28;20208;-79
2022/04/30 01:44:57;;;;;;;12.33;8.00;;;13.20;99.90;;;;;;5033127;28;20200;-79
2022/04/30 01:47:24;;;;;;;13.93;7.50;;;13.10;99.90;;;;;;5033383;28;20205;-79
2022/04/30 01:49:49;;;;;;;12.43;7.27;;;13.10;99.90;;;;;;5032852;28;20216;-79
2022/04/30 01:52:15;;;;;;;12.03;8.07;;;13.10;99.90;;;;;;5035524;28;20711;-80
2022/04/30 01:54:42;;;;;;;12.23;7.93;;;13.00;99.90;;;;;;5038694;28;20277;-79
2022/04/30 01:57:08;;;;;;;16.93;8.83;;;13.00;99.90;;;;;;5036412;28;20180;-79
2022/04/30 01:59:33;;;;;;;12.53;7.03;;;13.10;99.90;;;;;;5038125;28;20187;-80
2022/04/30 02:01:59;;;;;;;12.97;7.40;;;13.00;99.90;;;;;;5036609;28;20220;-79
2022/04/30 02:04:26;;;;;;;14.23;7.90;;;13.00;99.90;;;;;;5052655;28;20224;-79
2022/04/30 02:06:52;;;;;;;13.77;7.80;;;13.00;99.90;;;;;;5038262;28;20205;-79
2022/04/30 02:09:18;;;;;;;15.20;7.47;;;13.10;99.90;;;;;;5037724;28;20173;-79
2022/04/30 02:11:44;;;;;;;11.48;7.82;;;13.10;99.90;;;;;;5036551;28;20172;-80
2022/04/30 02:14:14;;;;;;;10.57;7.23;;;13.20;99.90;;;;;;5038564;28;20220;-79
2022/04/30 02:16:41;;;;;;;14.90;8.17;;;13.00;99.90;;;;;;5036305;28;20701;-79
2022/04/30 02:19:08;;;;;;;10.33;6.33;;;12.90;99.90;;;;;;5037328;28;20254;-79
2022/04/30 02:21:35;;;;;;;9.27;6.83;;;12.90;99.90;;;;;;5036055;28;20235;-79
2022/04/30 02:24:02;;;;;;;11.87;6.57;;;12.80;99.90;;;;;;5035932;28;20230;-79
2022/04/30 02:26:28;;;;;;;9.77;6.50;;;12.80;99.90;;;;;;5037412;28;20287;-79
2022/04/30 02:28:57;;;;;;;9.73;7.10;;;12.60;99.90;;;;;;5036412;28;20699;-79
2022/04/30 02:31:25;;;;;;;9.97;7.27;;;12.60;99.90;;;;;;5037250;28;20215;-80
2022/04/30 02:33:56;;;;;;;8.93;6.20;;;12.70;99.90;;;;;;5029676;28;20261;-79
2022/04/30 02:36:30;;;;;;;9.47;5.93;;;12.60;99.90;;;;;;5035790;28;20657;-79
2022/04/30 02:38:57;;;;;;;9.47;6.20;;;12.50;99.90;;;;;;5034925;28;20652;-79
2022/04/30 02:41:23;;;;;;;13.07;7.50;;;12.50;99.90;;;;;;5037715;28;20707;-79
2022/04/30 02:43:50;;;;;;;10.47;6.17;;;12.40;99.90;;;;;;5035347;28;20204;-79
2022/04/30 02:46:16;;;;;;;11.50;6.30;;;12.30;99.90;;;;;;5036276;28;20204;-79
2022/04/30 02:48:43;;;;;;;10.60;5.80;;;12.30;99.90;;;;;;5035602;28;20212;-79
2022/04/30 02:51:10;;;;;;;12.37;6.10;;;12.30;99.90;;;;;;5034797;28;20407;-80
2022/04/30 02:53:36;;;;;;;9.77;5.73;;;12.30;99.90;;;;;;5020069;28;20192;-79
2022/04/30 02:56:02;;;;;;;10.73;6.03;;;12.30;99.90;;;;;;5017185;28;20693;-79
2022/04/30 03:01:12;;;;;;;8.40;5.00;;;12.20;99.90;;;;;;5016790;28;20216;-79
2022/04/30 03:03:37;;;;;;;10.67;6.00;;;12.20;99.90;;;;;;5016542;28;20217;-80
2022/04/30 03:06:03;;;;;;;9.20;5.87;;;12.20;99.90;;;;;;5016079;28;20785;-80
2022/04/30 03:08:28;;;;;;;9.83;5.57;;;12.30;99.90;;;;;;5014189;28;20212;-79
2022/04/30 03:10:56;;;;;;;11.83;5.97;;;12.30;99.90;;;;;;5020218;28;20204;-80
2022/04/30 03:13:24;;;;;;;11.30;5.47;;;12.30;99.90;;;;;;5036296;28;20228;-79
2022/04/30 03:15:51;;;;;;;10.63;5.80;;;12.30;99.90;;;;;;5036406;28;20279;-79
2022/04/30 03:23:37;;;;;;;12.70;6.83;;;12.30;99.90;;;;;;5022729;28;20283;-80
2022/04/30 03:26:05;;;;;;;9.63;5.93;;;12.30;99.90;;;;;;5016747;28;20236;-80
2022/04/30 03:28:32;;;;;;;9.33;5.23;;;12.40;99.90;;;;;;5013454;28;20702;-79
2022/04/30 03:30:57;;;;;;;9.93;5.63;;;12.30;99.90;;;;;;5014583;28;20236;-79
2022/04/30 03:33:24;;;;;;;8.07;5.80;;;12.30;99.90;;;;;;5013655;28;20177;-79
2022/04/30 03:35:49;;;;;;;8.10;5.43;;;12.30;99.90;;;;;;5015803;28;20209;-80
2022/04/30 03:38:15;;;;;;;10.67;5.50;;;12.20;99.90;;;;;;5015928;28;20669;-79
2022/04/30 03:40:40;;;;;;;10.37;5.60;;;12.20;99.90;;;;;;5014153;28;20223;-79
2022/04/30 03:43:07;;;;;;;14.57;5.63;;;12.10;99.90;;;;;;5015595;28;20207;-79
2022/04/30 03:45:32;;;;;;;10.27;5.73;;;12.00;99.90;;;;;;5014978;28;20217;-79
2022/04/30 03:47:58;;;;;;;7.57;5.77;;;11.90;99.90;;;;;;5014784;28;21160;-79
2022/04/30 03:50:23;;;;;;;8.03;5.40;;;11.80;99.90;;;;;;5014263;28;20205;-79
2022/04/30 03:52:49;;;;;;;11.13;5.10;;;11.90;99.90;;;;;;5021811;28;20251;-79
2022/04/30 03:55:15;;;;;;;8.93;5.60;;;12.00;99.90;;;;;;5016006;28;20229;-79
2022/04/30 03:57:41;;;;;;;11.20;5.37;;;12.00;99.90;;;;;;5025038;28;20243;-78
2022/04/30 04:00:08;;;;;;;11.60;4.97;;;11.90;99.90;;;;;;5033479;28;20218;-79
2022/04/30 04:02:36;;;;;;;9.30;5.60;;;11.90;99.90;;;;;;5033661;28;20188;-79
2022/04/30 04:05:02;;;;;;;8.37;5.07;;;11.90;99.90;;;;;;5027625;28;20232;-79
2022/04/30 04:07:29;;;;;;;7.97;5.10;;;11.80;99.90;;;;;;5014810;28;20706;-79
2022/04/30 04:09:55;;;;;;;8.33;5.37;;;11.90;99.90;;;;;;5014292;28;20658;-79
2022/04/30 04:12:20;;;;;;;8.03;5.47;;;11.90;99.90;;;;;;5016736;28;20203;-79
2022/04/30 04:17:40;;;;;;;7.10;4.60;;;12.00;99.90;;;;;;5032317;28;20298;-79
2022/04/30 04:20:08;;;;;;;9.47;5.20;;;12.00;99.90;;;;;;5034254;28;20588;-79
2022/04/30 04:22:34;;;;;;;8.77;5.27;;;12.00;99.90;;;;;;5030283;28;20272;-79
2022/04/30 04:27:43;;;;;;;9.47;4.50;;;12.00;99.90;;;;;;5013677;28;20283;-79
2022/04/30 04:30:09;;;;;;;10.63;5.13;;;11.90;99.90;;;;;;5014034;28;20184;-79
2022/04/30 04:32:35;;;;;;;10.03;4.80;;;11.90;99.90;;;;;;5023084;28;20629;-79
2022/04/30 04:35:01;;;;;;;8.03;5.43;;;11.90;99.90;;;;;;5035217;28;20216;-79
2022/04/30 04:37:27;;;;;;;11.03;5.70;;;11.90;99.90;;;;;;5033273;28;20287;-79
2022/04/30 04:39:54;;;;;;;7.03;4.87;;;11.90;99.90;;;;;;5032459;28;20208;-79
2022/04/30 04:42:19;;;;;;;13.43;5.10;;;11.90;99.90;;;;;;5033264;28;20176;-79
2022/04/30 04:44:45;;;;;;;7.73;4.77;;;11.90;99.90;;;;;;5033529;28;20311;-80
2022/04/30 04:47:11;;;;;;;6.80;4.70;;;11.90;99.90;;;;;;5033581;28;20216;-79
2022/04/30 04:49:37;;;;;;;8.83;5.10;;;12.00;99.90;;;;;;5031154;28;20270;-79
2022/04/30 04:52:03;;;;;;;10.00;5.30;;;11.90;99.90;;;;;;5029472;28;20746;-80
2022/04/30 04:54:29;;;;;;;7.53;4.70;;;12.00;99.90;;;;;;5015330;28;20216;-79
2022/04/30 04:56:55;;;;;;;10.50;5.60;;;12.00;99.90;;;;;;5013893;28;20185;-79
2022/04/30 04:59:20;;;;;;;10.30;4.77;;;12.10;99.90;;;;;;5011172;28;20280;-79
2022/04/30 05:01:48;;;;;;;9.80;5.57;;;12.20;99.90;;;;;;5013146;28;20208;-79
2022/04/30 05:04:13;;;;;;;13.03;6.43;;;12.20;99.90;;;;;;5011508;28;20215;-78
2022/04/30 05:06:39;;;;;;;7.73;4.93;;;12.30;99.90;;;;;;5011681;28;20663;-79
2022/04/30 05:09:04;;;;;;;10.67;5.33;;;12.30;99.90;;;;;;5015767;28;20651;-79
2022/04/30 05:11:30;;;;;;;7.93;5.07;;;12.40;99.90;;;;;;5031956;28;20208;-79
2022/04/30 05:13:55;;;;;;;8.47;5.30;;;12.50;99.90;;;;;;5030811;28;20211;-79
2022/04/30 05:16:21;;;;;;;9.43;5.40;;;12.40;99.90;;;;;;5030355;28;20219;-79
2022/04/30 05:18:46;;;;;;;8.13;4.67;;;12.60;99.90;;;;;;5030081;28;20212;-79
2022/04/30 05:21:12;;;;;;;11.67;5.03;;;12.70;99.90;;;;;;5030204;28;20184;-79
2022/04/30 05:23:37;;;;;;;8.73;4.93;;;12.80;99.90;;;;;;5032898;28;20255;-79
2022/04/30 05:26:03;;;;;;;8.30;5.43;;;12.80;99.90;;;;;;5031017;28;20202;-79
2022/04/30 05:28:29;;;;;;;9.17;5.50;;;12.90;99.90;;;;;;5034081;28;20223;-79
2022/04/30 05:30:54;;;;;;;9.07;5.47;;;13.00;99.90;;;;;;5034269;28;20307;-79
2022/04/30 05:33:20;;;;;;;9.10;4.93;;;13.10;99.90;;;;;;5033607;28;20187;-79
2022/04/30 05:35:45;;;;;;;10.30;5.03;;;13.20;99.90;;;;;;5033644;28;20239;-79
2022/04/30 05:38:10;;;;;;;9.63;4.47;;;13.40;99.90;;;;;;5034035;28;20250;-79
2022/04/30 05:40:36;;;;;;;6.17;4.57;;;13.50;99.90;;;;;;5034707;28;20685;-80
2022/04/30 05:43:03;;;;;;;11.80;4.70;;;13.40;99.90;;;;;;5036357;28;20274;-79
2022/04/30 05:45:29;;;;;;;7.33;3.90;;;13.50;99.90;;;;;;5035541;28;20218;-79
2022/04/30 05:47:54;;;;;;;6.93;3.80;;;13.60;99.90;;;;;;5036088;28;20176;-80
2022/04/30 05:50:20;;;;;;;5.53;3.83;;;13.90;99.90;;;;;;5035593;28;20284;-79
2022/04/30 05:52:45;;;;;;;6.65;3.90;;;14.30;99.90;;;;;;5034302;28;20207;-79
2022/04/30 05:55:11;;;;;;;7.28;3.80;;;14.60;99.90;;;;;;5033225;28;20219;-79
2022/04/30 05:57:36;;;;;;;6.68;4.40;;;14.80;99.90;;;;;;5034180;28;20784;-79
2022/04/30 06:00:03;;;;;;;4.68;3.78;;;15.60;99.90;;;;;;5034200;28;20177;-80
2022/04/30 06:02:29;;;;;;;5.85;3.42;;;16.00;99.90;;;;;;5034148;28;20215;-80
2022/04/30 06:04:54;;;;;;;6.05;3.20;;;16.60;99.90;;;;;;5034365;28;20562;-80
2022/04/30 06:07:20;;;;;;;5.47;3.10;;;16.90;99.90;;;;;;5034403;28;20204;-80
2022/04/30 06:09:45;;;;;;;6.07;3.10;;;17.10;99.90;;;;;;5032275;28;20275;-79
2022/04/30 06:12:11;;;;;;;6.70;3.15;;;17.20;99.90;;;;;;5035005;28;20168;-80
2022/04/30 06:14:36;;;;;;;7.40;3.42;;;17.10;99.90;;;;;;5035524;28;20220;-80
2022/04/30 06:17:02;;;;;;;5.68;3.15;;;16.80;99.90;;;;;;5035114;28;20203;-80
2022/04/30 06:19:28;;;;;;;6.15;3.22;;;16.80;99.90;;;;;;5034037;28;20211;-80
2022/04/30 06:21:54;;;;;;;7.13;3.42;;;16.40;99.90;;;;;;5034905;28;20200;-79
2022/04/30 06:24:19;;;;;;;4.78;3.35;;;16.30;99.90;;;;;;5034932;28;20200;-80
2022/04/30 06:26:45;;;;;;;6.80;3.28;;;16.20;99.90;;;;;;5034160;28;20279;-79
2022/04/30 06:29:11;;;;;;;8.23;3.30;;;15.90;99.90;;;;;;5032830;28;20208;-79
2022/04/30 06:31:37;;;;;;;10.80;3.53;;;15.90;99.90;;;;;;5033195;28;20212;-80
2022/04/30 06:34:03;;;;;;;8.82;3.97;;;15.80;99.90;;;;;;5032999;28;20201;-80
2022/04/30 06:36:29;;;;;;;5.47;3.28;;;15.70;99.90;;;;;;5047375;23;20239;-74
2022/04/30 06:38:55;;;;;;;6.07;3.33;;;15.40;99.90;;;;;;5032331;28;20238;-74
2022/04/30 06:41:23;;;;;;;8.70;3.35;;;15.50;99.90;;;;;;5033720;28;20208;-73
2022/04/30 06:43:51;;;;;;;11.80;3.65;;;15.50;99.90;;;;;;5033765;28;20266;-73
2022/04/30 06:46:17;;;;;;;7.20;3.05;;;15.50;99.90;;;;;;5033486;28;20254;-73
2022/04/30 06:48:44;;;;;;;10.07;3.30;;;15.50;99.90;;;;;;5032757;28;20299;-74
2022/04/30 06:51:10;;;;;;;6.55;3.38;;;15.50;99.90;;;;;;5033626;28;20579;-74
2022/04/30 06:59:09;;;;;;;5.43;3.03;;;15.70;99.90;;;;;;5026932;28;20759;-74
2022/04/30 07:02:21;;;;;;;8.15;3.35;;;15.70;99.90;;;;;;5033243;28;20223;-74
2022/04/30 07:04:29;;;;;;;8.88;3.33;;;15.50;99.90;;;;;;5032962;28;20200;-73
2022/04/30 07:06:55;;;;;;;8.48;3.50;;;15.80;99.90;;;;;;5032647;28;20200;-74
2022/04/30 07:09:21;;;;;;;6.15;3.10;;;16.90;99.90;;;;;;5034074;28;20602;-73
2022/04/30 07:11:46;;;;;;;5.32;3.25;;;18.20;99.90;;;;;;5033073;28;20178;-74
2022/04/30 07:14:12;;;;;;;5.38;3.03;;;19.30;99.90;;;;;;5033187;28;20216;-74
2022/04/30 07:16:38;;;;;;;5.13;3.45;;;19.70;99.90;;;;;;5033013;28;20212;-74
2022/04/30 07:19:04;;;;;;;6.78;3.45;;;19.80;99.90;;;;;;5030770;28;20200;-73
2022/04/30 07:21:31;;;;;;;4.05;3.25;;;19.40;99.90;;;;;;5032838;28;20354;-74
2022/04/30 07:24:00;;;;;;;5.50;2.88;;;18.80;99.90;;;;;;5031913;28;20222;-74
2022/04/30 07:26:26;;;;;;;6.15;3.50;;;18.40;99.90;;;;;;5031086;28;20265;-74
2022/04/30 07:28:52;;;;;;;5.63;2.97;;;18.00;99.90;;;;;;5031823;28;20287;-74
2022/04/30 07:31:18;;;;;;;5.40;3.33;;;18.00;99.90;;;;;;5032771;28;20703;-74
2022/04/30 07:33:44;;;;;;;5.38;2.85;;;18.30;99.90;;;;;;5032407;28;20201;-74
2022/04/30 07:36:10;;;;;;;5.40;2.85;;;18.20;99.90;;;;;;5031984;28;20716;-74
2022/04/30 07:38:36;;;;;;;5.95;3.38;;;18.30;99.90;;;;;;5032128;28;20645;-74
2022/04/30 07:41:01;;;;;;;4.40;2.70;;;18.30;99.90;;;;;;5032288;28;20699;-73
2022/04/30 07:43:26;;;;;;;5.10;3.30;;;18.00;99.90;;;;;;5032107;28;20258;-73
2022/04/30 07:45:52;;;;;;;3.95;3.03;;;18.10;99.90;;;;;;5032549;28;20254;-74
2022/04/30 07:48:17;;;;;;;8.88;3.35;;;18.00;99.90;;;;;;5031544;28;20368;-74
2022/04/30 07:50:46;;;;;;;6.30;3.30;;;18.10;99.90;;;;;;5031660;28;20176;-74
2022/04/30 07:53:15;;;;;;;8.52;3.30;;;17.80;99.90;;;;;;5030775;28;20279;-73
2022/04/30 07:55:42;;;;;;;8.40;3.20;;;17.70;99.90;;;;;;5031904;28;20325;-75
2022/04/30 07:58:08;;;;;;;7.85;3.72;;;17.90;99.90;;;;;;5031355;28;20772;-73
2022/04/30 08:00:34;;;;;;;8.57;3.83;;;18.00;99.90;;;;;;5031844;28;20303;-74
2022/04/30 08:03:00;;;;;;;3.88;2.80;;;18.00;99.90;;;;;;5032516;28;20186;-74
2022/04/30 08:05:26;;;;;;;6.93;3.17;;;17.90;99.90;;;;;;5032214;28;20209;-74
2022/04/30 08:07:52;;;;;;;8.85;3.90;;;18.50;99.90;;;;;;5031455;28;20204;-73
2022/04/30 08:10:18;;;;;;;9.02;3.05;;;19.30;99.90;;;;;;5029965;28;20215;-74
2022/04/30 08:12:44;;;;;;;4.05;2.72;;;20.10;99.90;;;;;;5030367;28;20220;-74
2022/04/30 08:15:10;;;;;;;4.30;3.10;;;20.90;99.90;;;;;;5030484;28;20238;-74
2022/04/30 08:17:35;;;;;;;5.38;2.97;;;20.90;99.90;;;;;;5030812;28;20219;-73
2022/04/30 08:20:02;;;;;;;5.82;2.88;;;21.20;99.90;;;;;;5031037;28;20200;-74
2022/04/30 08:22:27;;;;;;;6.35;2.95;;;21.50;99.90;;;;;;5031454;28;20197;-73
2022/04/30 08:24:53;;;;;;;4.03;2.80;;;21.40;99.90;;;;;;5031550;28;20204;-74
2022/04/30 08:27:18;;;;;;;7.15;2.83;;;21.20;99.90;;;;;;5031496;28;20177;-75
2022/04/30 08:29:44;;;;;;;4.53;3.33;;;21.30;99.90;;;;;;5031199;28;20646;-73
2022/04/30 08:32:11;;;;;;;9.00;3.05;;;21.60;99.90;;;;;;5031527;28;20204;-73
2022/04/30 08:34:36;;;;;;;4.07;2.70;;;21.50;99.90;;;;;;5031316;28;20292;-73
2022/04/30 08:37:02;;;;;;;12.57;6.47;;;21.20;99.90;;;;;;5030058;28;20669;-75
2022/04/30 08:39:27;;;;;;;4.60;3.50;;;21.30;99.90;;;;;;5030951;28;20204;-73
2022/04/30 08:41:53;;;;;;;9.77;4.20;;;21.10;99.90;;;;;;5032336;28;20598;-73
2022/04/30 08:44:19;;;;;;;15.15;9.95;;;20.90;99.90;;;;;;5031477;28;20651;-74
2022/04/30 08:46:45;;;;;;;6.85;3.75;;;20.70;99.90;;;;;;5031228;28;20204;-74
2022/04/30 08:49:11;;;;;;;6.38;2.90;;;20.40;99.90;;;;;;5030676;28;20208;-75
2022/04/30 08:51:38;;;;;;;8.32;3.20;;;20.10;99.90;;;;;;5029801;28;20216;-74
2022/04/30 08:54:04;;;;;;;7.93;3.30;;;20.30;99.90;;;;;;5031854;28;20775;-74
2022/04/30 08:56:30;;;;;;;10.50;2.75;;;20.00;99.90;;;;;;5029771;28;20287;-74
2022/04/30 08:59:04;;;;;;;4.18;2.67;;;20.00;99.90;;;;;;5030739;28;20204;-74
2022/04/30 09:01:30;;;;;;;7.55;2.92;;;20.00;99.90;;;;;;5029836;28;20206;-73
2022/04/30 09:03:56;;;;;;;3.42;2.80;;;20.20;99.90;;;;;;5031232;28;20685;-73
2022/04/30 09:06:22;;;;;;;5.90;3.25;;;20.40;99.90;;;;;;5030572;28;20326;-73
2022/04/30 09:08:51;;;;;;;6.75;3.10;;;20.80;99.90;;;;;;5030625;28;20668;-73
2022/04/30 09:11:26;;;;;;;5.05;3.50;;;20.80;99.90;;;;;;5031211;28;20208;-73
2022/04/30 09:13:52;;;;;;;6.63;3.25;;;20.90;99.90;;;;;;5029761;28;20195;-73
2022/04/30 09:16:24;;;;;;;5.15;2.92;;;21.20;99.80;;;;;;5030956;28;20223;-73
2022/04/30 09:18:52;;;;;;;4.18;3.00;;;21.30;99.60;;;;;;5021098;28;20215;-73
2022/04/30 09:21:18;;;;;;;6.68;2.92;;;21.70;99.20;;;;;;5030623;28;20184;-74
2022/04/30 09:23:45;;;;;;;7.80;4.03;;;21.40;99.20;;;;;;5030583;28;20545;-73
2022/04/30 09:26:11;;;;;;;7.45;3.53;;;21.20;99.30;;;;;;5030827;28;20287;-73
2022/04/30 09:28:38;;;;;;;5.82;3.38;;;21.30;99.20;;;;;;5030126;28;20238;-73
2022/04/30 09:31:06;;;;;;;5.70;3.30;;;21.40;99.10;;;;;;5029575;28;20210;-73
2022/04/30 09:33:32;;;;;;;5.60;2.67;;;21.00;99.10;;;;;;5029284;28;20243;-73
2022/04/30 09:38:50;;;;;;;13.00;3.63;;;21.60;99.30;;;;;;5023058;28;20203;-74
2022/04/30 09:41:21;;;;;;;7.45;4.57;;;21.40;99.00;;;;;;5045753;28;20628;-74
2022/04/30 09:43:47;;;;;;;7.80;3.60;;;21.70;99.60;;;;;;5030648;28;20258;-74
2022/04/30 09:46:12;;;;;;;7.43;2.92;;;21.70;98.70;;;;;;5029605;28;20208;-74
2022/04/30 09:54:07;;;;;;;7.72;3.47;;;21.50;98.40;;;;;;5031916;28;20207;-75
2022/04/30 09:56:40;;;;;;;8.82;3.20;;;21.30;99.00;;;;;;5031203;28;20243;-74
2022/04/30 09:59:15;;;;;;;4.88;3.22;;;21.40;99.10;;;;;;5030127;28;20207;-74
2022/04/30 10:01:47;;;;;;;7.22;2.72;;;21.80;99.00;;;;;;5029546;28;22182;-74
2022/04/30 10:04:15;;;;;;;6.05;3.03;;;22.10;98.40;;;;;;5030985;28;20232;-74
2022/04/30 10:06:49;;;;;;;7.68;3.25;;;22.60;97.90;;;;;;5031976;28;20216;-74
2022/04/30 10:09:22;;;;;;;6.28;3.08;;;23.00;97.30;;;;;;5027779;28;20180;-74
2022/04/30 10:12:09;;;;;;;9.57;3.58;;;23.00;97.40;;;;;;5027974;28;20165;-74
2022/04/30 10:14:34;;;;;;;7.55;3.33;;;22.50;96.70;;;;;;5034386;28;20226;-74
2022/04/30 10:19:35;;;;;;;7.60;3.45;;;22.60;97.00;;;;;;5038014;28;20295;-74
2022/04/30 10:22:12;;;;;;;10.35;6.13;;;22.10;95.60;;;;;;5038710;28;20295;-75
2022/04/30 10:24:46;;;;;;;8.05;4.60;;;22.00;95.90;;;;;;5034510;28;20212;-73
2022/04/30 10:27:12;;;;;;;5.10;3.60;;;22.10;96.10;;;;;;5034661;28;20283;-75
2022/04/30 10:29:38;;;;;;;6.28;3.55;;;21.90;95.00;;;;;;5033731;28;20263;-73
2022/04/30 10:32:04;;;;;;;5.90;3.70;;;22.00;95.40;;;;;;5034032;28;20359;-74
2022/04/30 10:34:31;;;;;;;5.45;3.63;;;22.10;94.90;;;;;;5033522;28;20770;-74
2022/04/30 10:37:00;;;;;;;6.15;3.33;;;21.90;95.10;;;;;;5034357;28;20236;-74
2022/04/30 10:39:25;;;;;;;5.93;3.65;;;21.90;95.30;;;;;;5034139;28;20568;-75
2022/04/30 10:41:53;;;;;;;5.00;3.53;;;21.60;95.70;;;;;;5038040;28;20169;-74
2022/04/30 10:44:31;;;;;;;4.30;3.40;;;21.50;95.80;;;;;;5035245;28;20200;-74
2022/04/30 10:47:08;;;;;;;6.22;3.20;;;21.40;96.30;;;;;;5027164;28;20335;-74
2022/04/30 10:49:34;;;;;;;3.80;2.78;;;21.40;96.80;;;;;;5031736;28;20204;-74
2022/04/30 10:52:01;;;;;;;5.68;3.35;;;21.40;96.50;;;;;;5033980;28;20200;-75
2022/04/30 10:54:29;;;;;;;6.30;3.15;;;21.60;96.30;;;;;;5033708;28;20216;-75
2022/04/30 10:56:59;;;;;;;9.77;6.32;;;21.40;95.10;;;;;;5034275;28;20208;-74
2022/04/30 10:59:26;;;;;;;5.72;3.50;;;21.40;94.90;;;;;;5031792;28;20653;-73
2022/04/30 11:01:51;;;;;;;5.28;3.40;;;21.50;95.00;;;;;;5032131;28;20209;-74
2022/04/30 11:04:18;;;;;;;4.95;3.13;;;21.60;95.30;;;;;;5032373;28;20208;-74
2022/04/30 11:06:47;;;;;;;7.72;4.03;;;22.00;94.90;;;;;;5033501;28;20723;-73
2022/04/30 11:09:13;;;;;;;13.23;3.75;;;22.30;94.50;;;;;;5032703;28;20180;-74
2022/04/30 11:11:38;;;;;;;8.63;3.17;;;22.00;94.90;;;;;;5049350;28;20747;-73
2022/04/30 11:14:06;;;;;;;6.20;3.15;;;22.30;95.00;;;;;;5033008;28;20208;-73
2022/04/30 11:16:37;;;;;;;9.27;3.75;;;22.30;95.00;;;;;;5032889;28;20212;-73
2022/04/30 11:19:09;;;;;;;9.05;4.30;;;22.50;95.00;;;;;;5032726;28;20254;-73
2022/04/30 11:21:40;;;;;;;12.18;5.55;;;22.20;94.40;;;;;;5031888;28;20284;-74
2022/04/30 11:24:06;;;;;;;7.97;4.75;;;22.10;93.90;;;;;;5033058;28;20177;-75
2022/04/30 11:26:42;;;;;;;7.03;3.78;;;22.20;94.20;;;;;;5033879;28;20337;-74
2022/04/30 11:29:12;;;;;;;7.20;3.17;;;22.50;93.90;;;;;;5032743;28;20204;-75
2022/04/30 11:31:39;;;;;;;6.45;3.53;;;22.30;93.60;;;;;;5033336;28;20312;-74
2022/04/30 11:34:12;;;;;;;5.57;3.80;;;22.20;92.80;;;;;;5032858;28;20207;-74
2022/04/30 11:36:42;;;;;;;6.75;3.40;;;22.40;92.70;;;;;;5032897;28;20301;-74
2022/04/30 11:39:12;;;;;;;9.20;4.68;;;22.60;92.60;;;;;;5032581;28;20239;-75
2022/04/30 11:41:39;;;;;;;10.05;4.75;;;22.20;93.50;;;;;;5033809;28;20547;-74
2022/04/30 11:44:04;;;;;;;4.80;3.65;;;22.00;94.40;;;;;;5033917;28;20279;-74
2022/04/30 11:46:30;;;;;;;7.85;4.78;;;22.10;94.30;;;;;;5033956;28;20230;-74
2022/04/30 11:48:55;;;;;;;7.10;4.82;;;22.30;94.10;;;;;;5033411;28;20204;-74
2022/04/30 11:51:21;;;;;;;8.23;4.20;;;22.00;93.90;;;;;;5031517;28;20234;-72
2022/04/30 11:53:47;;;;;;;9.68;4.95;;;22.00;94.50;;;;;;5034439;28;20234;-74
2022/04/30 11:56:13;;;;;;;8.65;5.00;;;21.90;94.20;;;;;;5032566;28;20641;-74
2022/04/30 11:58:40;;;;;;;10.38;4.80;;;21.50;94.50;;;;;;5032124;28;20320;-73
2022/04/30 12:01:06;;;;;;;8.00;4.72;;;21.30;95.00;;;;;;5033042;28;20208;-74
2022/04/30 12:03:31;;;;;;;7.60;5.28;;;21.10;94.90;;;;;;5032350;28;20713;-74
2022/04/30 12:05:57;;;;;;;15.13;6.80;;;21.20;94.80;;;;;;5032988;28;20613;-74
2022/04/30 12:08:29;;;;;;;9.60;5.18;;;21.10;94.90;;;;;;5030203;28;20203;-72
2022/04/30 12:10:57;;;;;;;7.47;4.68;;;20.90;95.00;;;;;;5032508;28;20280;-72
2022/04/30 12:13:24;;;;;;;8.20;5.07;;;21.00;95.40;;;;;;5030828;28;20196;-73
2022/04/30 12:16:01;;;;;;;7.05;3.88;;;21.50;94.90;;;;;;5032067;28;20219;-73
2022/04/30 12:26:55;;;;;;;8.45;4.32;;;22.50;92.60;;;;;;5024368;28;20711;-75
2022/04/30 12:29:24;;;;;;;7.35;4.05;;;22.50;92.10;;;;;;5031109;28;20204;-74
2022/04/30 12:31:51;;;;;;;7.75;4.25;;;22.60;92.40;;;;;;5031992;28;20208;-74
2022/04/30 12:34:34;;;;;;;8.05;4.80;;;22.70;92.10;;;;;;5032050;28;20258;-75
2022/04/30 12:37:00;;;;;;;7.18;4.85;;;22.10;92.10;;;;;;5023647;23;20229;-76
2022/04/30 12:39:27;;;;;;;9.75;4.55;;;21.00;92.80;;;;;;4985909;28;20637;-76
2022/04/30 12:41:53;;;;;;;8.57;5.00;;;20.70;93.50;;;;;;4992582;28;20663;-76
2022/04/30 12:44:20;;;;;;;10.45;5.15;;;21.00;93.50;;;;;;4991867;28;20210;-77
2022/04/30 12:46:46;;;;;;;9.15;4.55;;;21.30;93.40;;;;;;4991835;28;20233;-76
2022/04/30 12:49:14;;;;;;;12.07;5.45;;;21.70;93.20;;;;;;4991281;28;20292;-75
2022/04/30 12:51:41;;;;;;;5.15;3.67;;;21.80;93.00;;;;;;4990265;28;20722;-77
2022/04/30 12:54:09;;;;;;;8.82;4.45;;;21.80;92.50;;;;;;4991801;28;20182;-77
2022/04/30 12:56:35;;;;;;;9.50;4.07;;;21.50;92.50;;;;;;4992063;28;20218;-76
2022/04/30 12:59:01;;;;;;;5.38;3.78;;;21.80;92.80;;;;;;4990773;28;20198;-76
2022/04/30 13:01:28;;;;;;;7.38;3.50;;;21.70;92.00;;;;;;4990354;28;20567;-76
2022/04/30 13:03:54;;;;;;;6.78;3.95;;;22.00;92.10;;;;;;4991578;28;20228;-76
2022/04/30 13:06:20;;;;;;;6.25;3.88;;;22.00;91.50;;;;;;4990319;28;20228;-76
2022/04/30 13:14:15;;;;;;;7.90;3.92;;;21.80;90.90;;;;;;4991546;28;20216;-76
2022/04/30 13:16:40;;;;;;;8.57;4.35;;;21.00;90.50;;;;;;4991250;28;20209;-74
2022/04/30 13:19:05;;;;;;;5.03;3.78;;;20.60;91.10;;;;;;4989564;28;20256;-75
2022/04/30 13:21:32;;;;;;;7.32;4.10;;;20.50;91.40;;;;;;4989919;28;20703;-76
2022/04/30 13:23:58;;;;;;;8.05;4.32;;;20.30;91.40;;;;;;4990797;28;20181;-76
2022/04/30 13:26:23;;;;;;;7.80;4.82;;;20.10;91.80;;;;;;4991956;28;20209;-76
2022/04/30 13:28:49;;;;;;;5.47;4.47;;;20.30;91.80;;;;;;4989439;28;20205;-76
2022/04/30 13:31:15;;;;;;;6.20;3.83;;;20.50;92.30;;;;;;4991513;28;20212;-76